createdAt,value
2023-03-30T00:05:13.022Z,0.80
2023-03-30T00:10:40.783Z,0.95
2023-03-30T00:16:05.815Z,1.00
2023-03-30T00:21:30.808Z,1.08
2023-03-30T00:26:58.804Z,0.90
2023-03-30T00:32:23.861Z,1.08
2023-03-30T00:37:52.907Z,1.00
2023-03-30T00:43:21.859Z,0.95
2023-03-30T00:48:50.049Z,1.00
2023-03-30T00:54:20.818Z,0.98
2023-03-30T00:59:47.802Z,1.00
2023-03-30T01:05:15.977Z,0.90
2023-03-30T01:10:40.900Z,0.80
2023-03-30T01:16:19.892Z,0.80
2023-03-30T01:22:11.843Z,0.98
2023-03-30T01:27:57.863Z,0.90
2023-03-30T01:33:59.814Z,0.88
2023-03-30T01:45:16.867Z,0.75
2023-03-30T01:50:48.860Z,1.00
2023-03-30T01:56:20.085Z,0.98
2023-03-30T02:01:56.884Z,0.90
2023-03-30T02:07:25.880Z,0.90
2023-03-30T02:12:51.826Z,0.98
2023-03-30T02:18:19.895Z,0.70
2023-03-30T02:23:47.882Z,0.90
2023-03-30T02:29:12.901Z,0.85
2023-03-30T02:35:03.882Z,1.00
2023-03-30T02:40:47.918Z,1.00
2023-03-30T02:46:37.914Z,0.75
2023-03-30T02:52:08.860Z,0.70
2023-03-30T02:57:43.889Z,0.93
2023-03-30T03:03:37.946Z,0.90
2023-03-30T03:09:05.893Z,0.80
2023-03-30T03:14:32.894Z,1.00
2023-03-30T03:19:57.965Z,0.90
2023-03-30T03:25:25.120Z,1.00
2023-03-30T03:30:53.948Z,0.90
2023-03-30T03:36:20.970Z,1.00
2023-03-30T03:41:48.910Z,0.90
2023-03-30T03:47:14.559Z,0.95
2023-03-30T03:52:40.944Z,0.90
2023-03-30T03:58:07.918Z,1.10
2023-03-30T04:03:32.982Z,1.00
2023-03-30T04:08:56.932Z,0.93
2023-03-30T04:14:42.934Z,1.00
2023-03-30T04:20:29.983Z,0.90
2023-03-30T04:26:08.060Z,1.00
2023-03-30T04:31:58.953Z,0.80
2023-03-30T04:37:36.985Z,1.17
2023-03-30T04:43:26.959Z,1.10
2023-03-30T04:49:23.932Z,1.40
2023-03-30T04:55:07.031Z,1.58
2023-03-30T05:00:47.918Z,1.20
2023-03-30T05:06:30.985Z,1.05
2023-03-30T05:12:13.967Z,1.02
2023-03-30T05:18:06.046Z,1.15
2023-03-30T05:24:09.102Z,1.10
2023-03-30T05:30:04.015Z,1.10
2023-03-30T05:35:49.055Z,1.30
2023-03-30T05:41:34.948Z,1.15
2023-03-30T05:47:23.081Z,1.10
2023-03-30T05:52:56.982Z,1.38
2023-03-30T05:59:00.148Z,1.48
2023-03-30T06:04:43.052Z,1.33
2023-03-30T06:10:08.996Z,1.30
2023-03-30T06:15:37.996Z,1.38
2023-03-30T06:21:09.013Z,1.30
2023-03-30T06:26:48.069Z,1.20
2023-03-30T06:32:17.080Z,1.27
2023-03-30T06:38:00.045Z,1.17
2023-03-30T06:43:28.096Z,1.20
2023-03-30T06:49:08.218Z,1.10
2023-03-30T06:54:36.010Z,1.40
2023-03-30T07:00:01.006Z,1.20
2023-03-30T07:05:34.997Z,1.20
2023-03-30T07:11:07.246Z,1.45
2023-03-30T07:16:33.046Z,1.20
2023-03-30T07:22:01.292Z,1.40
2023-03-30T07:27:27.027Z,1.30
2023-03-30T07:32:56.266Z,1.33
2023-03-30T07:38:26.002Z,1.45
2023-03-30T07:43:52.391Z,1.40
2023-03-30T07:49:17.028Z,1.33
2023-03-30T07:54:44.323Z,1.40
2023-03-30T08:00:21.039Z,1.30
2023-03-30T08:06:11.066Z,1.30
2023-03-30T08:11:43.058Z,1.60
2023-03-30T08:17:07.036Z,1.45
2023-03-30T08:22:33.088Z,1.55
2023-03-30T08:28:00.045Z,1.38
2023-03-30T08:33:26.066Z,1.50
2023-03-30T08:38:53.078Z,1.60
2023-03-30T08:44:28.054Z,1.60
2023-03-30T08:49:58.062Z,1.67
2023-03-30T08:55:33.043Z,1.40
2023-03-30T09:01:05.220Z,1.55
2023-03-30T09:06:37.059Z,1.40
2023-03-30T09:12:06.081Z,2.00
2023-03-30T09:17:40.090Z,1.60
2023-03-30T09:23:05.076Z,1.60
2023-03-30T09:28:37.073Z,1.30
2023-03-30T09:34:14.357Z,1.40
2023-03-30T09:39:40.114Z,1.23
2023-03-30T09:45:08.071Z,1.33
2023-03-30T09:50:38.121Z,1.27
2023-03-30T09:56:16.109Z,0.93
2023-03-30T10:01:47.117Z,1.25
2023-03-30T10:07:18.910Z,1.10
2023-03-30T10:12:44.103Z,0.95
2023-03-30T10:18:09.158Z,1.20
2023-03-30T10:23:46.136Z,1.27
2023-03-30T10:29:13.109Z,1.00
2023-03-30T10:34:50.120Z,1.20
2023-03-30T10:40:25.119Z,1.40
2023-03-30T10:45:55.106Z,1.30
2023-03-30T10:51:27.135Z,1.20
2023-03-30T10:56:59.138Z,1.13
2023-03-30T11:02:41.193Z,1.27
2023-03-30T11:08:11.286Z,1.30
2023-03-30T11:13:41.164Z,1.20
2023-03-30T11:19:10.231Z,1.00
2023-03-30T11:24:44.127Z,1.35
2023-03-30T11:30:22.153Z,1.60
2023-03-30T11:35:52.228Z,1.45
2023-03-30T11:41:23.150Z,1.30
2023-03-30T11:46:59.235Z,1.13
2023-03-30T11:52:35.142Z,1.30
2023-03-30T11:57:57.144Z,1.10
2023-03-30T12:03:36.347Z,1.20
2023-03-30T12:09:14.211Z,1.52
2023-03-30T12:14:56.190Z,1.35
2023-03-30T12:20:29.336Z,1.20
2023-03-30T12:26:17.199Z,1.40
2023-03-30T12:32:13.210Z,1.10
2023-03-30T12:37:45.168Z,1.00
2023-03-30T12:43:18.203Z,1.30
2023-03-30T12:48:58.211Z,1.00
2023-03-30T12:54:40.281Z,0.90
2023-03-30T13:00:23.197Z,1.00
2023-03-30T13:05:51.201Z,1.15
2023-03-30T13:11:28.231Z,0.82
2023-03-30T13:17:21.240Z,0.90
2023-03-30T13:22:47.217Z,0.90
2023-03-30T13:28:45.794Z,1.00
2023-03-30T13:34:23.719Z,0.90
2023-03-30T13:39:59.220Z,0.80
2023-03-30T13:45:48.827Z,0.90
2023-03-30T13:51:15.423Z,0.90
2023-03-30T13:56:42.281Z,0.80
2023-03-30T14:02:13.316Z,0.30
2023-03-30T14:07:42.339Z,0.63
2023-03-30T14:13:10.265Z,0.40
2023-03-30T14:18:41.265Z,0.35
2023-03-30T14:24:06.343Z,0.30
2023-03-30T14:29:38.271Z,0.40
2023-03-30T14:35:06.243Z,0.55
2023-03-30T14:40:35.060Z,0.52
2023-03-30T14:46:03.333Z,0.40
2023-03-30T14:51:53.273Z,0.47
2023-03-30T14:57:21.322Z,0.50
2023-03-30T15:02:50.321Z,0.50
2023-03-30T15:08:29.086Z,0.47
2023-03-30T15:13:58.284Z,0.60
2023-03-30T15:19:30.296Z,0.43
2023-03-30T15:24:59.276Z,0.60
2023-03-30T15:30:37.788Z,0.50
2023-03-30T15:36:06.354Z,0.57
2023-03-30T15:41:54.306Z,0.60
2023-03-30T15:47:21.307Z,0.43
2023-03-30T15:52:51.298Z,1.25
2023-03-30T15:58:19.407Z,0.90
2023-03-30T16:03:48.379Z,0.70
2023-03-30T16:09:13.321Z,0.57
2023-03-30T16:14:44.338Z,0.55
2023-03-30T16:20:09.369Z,0.50
2023-03-30T16:25:45.298Z,0.47
2023-03-30T16:31:16.379Z,0.55
2023-03-30T16:36:41.321Z,0.70
2023-03-30T16:42:07.440Z,0.40
2023-03-30T16:47:34.336Z,0.63
2023-03-30T16:52:59.420Z,0.60
2023-03-30T16:58:26.343Z,0.50
2023-03-30T17:03:55.332Z,0.60
2023-03-30T17:09:19.441Z,0.55
2023-03-30T17:14:46.332Z,0.43
2023-03-30T17:20:16.336Z,0.50
2023-03-30T17:25:43.367Z,0.55
2023-03-30T17:31:11.117Z,0.50
2023-03-30T17:36:39.356Z,0.60
2023-03-30T17:42:06.349Z,0.70
2023-03-30T17:47:31.461Z,0.60
2023-03-30T17:52:58.358Z,0.60
2023-03-30T17:58:26.358Z,0.70
2023-03-30T18:03:51.418Z,0.80
2023-03-30T18:09:24.350Z,0.70
2023-03-30T18:14:48.369Z,0.70
2023-03-30T18:20:32.404Z,0.85
2023-03-30T18:25:59.419Z,0.80
2023-03-30T18:31:24.448Z,0.70
2023-03-30T18:36:48.412Z,0.63
2023-03-30T18:42:16.399Z,0.55
2023-03-30T18:47:40.395Z,0.75
2023-03-30T18:53:05.408Z,0.60
2023-03-30T18:58:34.403Z,0.60
2023-03-30T19:03:59.396Z,0.70
2023-03-30T19:09:33.100Z,0.50
2023-03-30T19:15:04.404Z,0.55
2023-03-30T19:20:30.407Z,0.60
2023-03-30T19:25:55.414Z,0.60
2023-03-30T19:31:25.455Z,0.60
2023-03-30T19:36:50.407Z,0.70
2023-03-30T19:42:14.465Z,0.93
2023-03-30T19:47:42.453Z,0.60
2023-03-30T19:53:07.427Z,0.80
2023-03-30T19:58:34.679Z,0.50
2023-03-30T20:04:01.477Z,0.68
2023-03-30T20:09:26.417Z,0.82
2023-03-30T20:14:57.432Z,0.90
2023-03-30T20:20:31.470Z,0.70
2023-03-30T20:26:03.459Z,0.73
2023-03-30T20:31:28.477Z,0.80
2023-03-30T20:36:56.451Z,0.80
2023-03-30T20:42:24.450Z,0.63
2023-03-30T20:47:48.534Z,0.80
2023-03-30T20:53:16.450Z,0.70
2023-03-30T20:58:40.456Z,0.60
2023-03-30T21:04:07.503Z,0.75
2023-03-30T21:09:35.470Z,0.77
2023-03-30T21:15:00.489Z,0.63
2023-03-30T21:20:26.485Z,0.70
2023-03-30T21:25:54.479Z,0.80
2023-03-30T21:31:23.523Z,0.70
2023-03-30T21:36:49.584Z,0.80
2023-03-30T21:42:17.493Z,0.60
2023-03-30T21:47:42.499Z,0.90
2023-03-30T21:53:07.506Z,0.85
2023-03-30T21:58:35.485Z,0.60
2023-03-30T22:04:00.514Z,0.75
2023-03-30T22:09:24.466Z,0.93
2023-03-30T22:14:59.474Z,1.00
2023-03-30T22:20:25.487Z,0.93
2023-03-30T22:25:49.484Z,1.10
2023-03-30T22:31:19.586Z,1.05
2023-03-30T22:36:45.478Z,1.02
2023-03-30T22:42:10.504Z,1.00
2023-03-30T22:47:37.541Z,0.80
2023-03-30T22:53:02.687Z,1.10
2023-03-30T22:58:27.539Z,0.85
2023-03-30T23:03:55.683Z,0.70
2023-03-30T23:09:35.644Z,1.10
2023-03-30T23:20:54.570Z,0.93
2023-03-30T23:31:42.664Z,0.93
2023-03-30T23:37:15.579Z,0.90
2023-03-30T23:42:41.612Z,0.98
2023-03-30T23:53:31.584Z,1.00
2023-03-30T23:58:56.633Z,1.13
